createdAt,value
2018-02-18T05:51:59.110Z,81.60
2018-02-18T05:54:26.932Z,78.75
2018-02-18T05:56:54.451Z,83.60
2018-02-18T05:59:22.827Z,87.20
2018-02-18T06:01:50.361Z,83.20
2018-02-18T06:04:17.852Z,80.47
2018-02-18T06:06:46.738Z,77.55
2018-02-18T06:09:15.116Z,78.32
2018-02-18T06:11:42.642Z,79.60
2018-02-18T06:14:10.153Z,68.25
2018-02-18T06:16:37.692Z,79.37
2018-02-18T06:19:05.224Z,81.30
2018-02-18T06:21:32.720Z,75.18
2018-02-18T06:24:00.260Z,72.20
2018-02-18T06:26:27.789Z,72.68
2018-02-18T06:28:55.311Z,74.97
2018-02-18T06:31:23.629Z,72.85
2018-02-18T06:33:51.320Z,73.90
2018-02-18T06:36:18.834Z,76.65
2018-02-18T06:38:46.336Z,71.43
2018-02-18T06:41:14.721Z,73.62
2018-02-18T06:43:42.218Z,71.97
2018-02-18T06:46:09.752Z,77.40
2018-02-18T06:48:37.243Z,72.43
2018-02-18T06:51:06.410Z,73.55
2018-02-18T06:53:33.912Z,70.50
2018-02-18T06:56:01.411Z,68.65
2018-02-18T06:58:29.053Z,71.50
2018-02-18T07:00:56.565Z,63.83
2018-02-18T07:03:24.083Z,65.00
2018-02-18T07:05:51.591Z,71.47
2018-02-18T07:08:20.455Z,73.87
2018-02-18T07:10:47.941Z,75.45
2018-02-18T07:13:15.479Z,70.25
2018-02-18T07:15:43.014Z,75.97
2018-02-18T07:18:10.587Z,76.25
2018-02-18T07:20:38.134Z,79.75
2018-02-18T07:23:05.659Z,75.10
2018-02-18T07:25:33.171Z,77.95
2018-02-18T07:28:00.665Z,74.75
2018-02-18T07:30:28.223Z,76.10
2018-02-18T07:32:55.911Z,78.70
2018-02-18T07:35:23.446Z,72.57
2018-02-18T07:37:51.761Z,69.05
2018-02-18T07:40:19.254Z,71.55
2018-02-18T07:42:46.773Z,67.03
2018-02-18T07:45:14.303Z,75.87
2018-02-18T07:47:42.585Z,72.40
2018-02-18T07:50:10.855Z,69.28
2018-02-18T07:52:39.247Z,67.18
2018-02-18T07:55:06.761Z,64.85
2018-02-18T07:57:34.265Z,71.93
2018-02-18T08:00:01.887Z,64.90
2018-02-18T08:02:29.370Z,66.95
2018-02-18T08:04:57.658Z,62.92
2018-02-18T08:07:25.199Z,62.42
2018-02-18T08:09:53.117Z,66.12
2018-02-18T08:12:20.647Z,58.47
2018-02-18T08:14:48.218Z,58.73
2018-02-18T08:17:15.874Z,57.33
2018-02-18T08:19:43.370Z,56.03
2018-02-18T08:22:10.889Z,56.47
2018-02-18T08:24:38.450Z,60.83
2018-02-18T08:27:06.115Z,54.43
2018-02-18T08:29:33.780Z,57.07
2018-02-18T08:32:01.280Z,59.17
2018-02-18T08:34:28.792Z,59.53
2018-02-18T08:36:56.496Z,56.90
2018-02-18T08:39:24.022Z,60.87
2018-02-18T08:41:51.551Z,60.83
2018-02-18T08:44:19.075Z,59.03
2018-02-18T08:46:46.680Z,61.70
2018-02-18T08:49:14.244Z,60.60
2018-02-18T08:51:41.738Z,59.90
2018-02-18T08:54:09.283Z,61.20
2018-02-18T08:56:37.531Z,57.37
2018-02-18T08:59:05.064Z,58.33
2018-02-18T09:01:32.568Z,59.17
2018-02-18T09:04:00.060Z,59.97
2018-02-18T09:06:27.566Z,56.20
2018-02-18T09:08:55.383Z,56.53
2018-02-18T09:11:22.895Z,57.37
2018-02-18T09:13:50.807Z,57.73
2018-02-18T09:16:19.081Z,57.30
2018-02-18T09:18:46.600Z,57.73
2018-02-18T09:21:14.305Z,58.87
2018-02-18T09:23:41.865Z,60.97
2018-02-18T09:26:09.508Z,62.03
2018-02-18T09:28:37.024Z,55.97
2018-02-18T09:31:04.619Z,54.70
2018-02-18T09:33:32.212Z,56.10
2018-02-18T09:35:59.711Z,51.40
2018-02-18T09:38:27.220Z,52.03
2018-02-18T09:40:54.745Z,50.40
2018-02-18T09:43:22.251Z,53.90
2018-02-18T09:45:49.869Z,53.40
2018-02-18T09:48:17.363Z,51.83
2018-02-18T09:50:44.984Z,51.23
2018-02-18T09:53:12.475Z,44.53
2018-02-18T09:55:40.043Z,46.80
2018-02-18T09:58:08.486Z,48.23
2018-02-18T10:00:35.992Z,43.20
2018-02-18T10:03:03.511Z,44.40
2018-02-18T10:05:31.099Z,43.00
2018-02-18T10:07:59.415Z,42.63
2018-02-18T10:10:26.915Z,43.20
2018-02-18T10:12:54.546Z,41.37
2018-02-18T10:15:22.058Z,40.60
2018-02-18T10:17:49.832Z,42.23
2018-02-18T10:20:17.365Z,40.23
2018-02-18T10:22:45.104Z,43.03
2018-02-18T10:25:12.628Z,40.73
2018-02-18T10:27:40.916Z,39.50
2018-02-18T10:30:08.430Z,41.70
2018-02-18T10:32:35.920Z,39.97
2018-02-18T10:35:03.457Z,39.77
2018-02-18T10:37:30.960Z,39.70
2018-02-18T10:39:58.473Z,43.70
2018-02-18T10:42:25.993Z,43.33
2018-02-18T10:44:53.508Z,41.00
2018-02-18T10:47:21.787Z,45.23
2018-02-18T10:49:49.326Z,41.17
2018-02-18T10:52:16.832Z,44.57
2018-02-18T10:54:44.331Z,41.87
2018-02-18T10:57:12.054Z,40.60
2018-02-18T10:59:39.551Z,42.43
2018-02-18T11:02:07.844Z,39.00
2018-02-18T11:04:35.346Z,40.67
2018-02-18T11:07:03.738Z,40.87
2018-02-18T11:09:31.318Z,37.27
2018-02-18T11:11:58.809Z,41.53
2018-02-18T11:14:26.319Z,34.97
2018-02-18T11:16:53.836Z,34.63
2018-02-18T11:19:22.138Z,37.40
2018-02-18T11:21:49.648Z,33.10
2018-02-18T11:24:17.432Z,33.47
2018-02-18T11:26:44.963Z,32.70
2018-02-18T11:29:12.464Z,33.07
2018-02-18T11:31:40.008Z,32.90
2018-02-18T11:34:08.262Z,29.27
2018-02-18T11:36:35.765Z,28.70
2018-02-18T11:39:04.329Z,30.03
2018-02-18T11:41:31.864Z,30.50
2018-02-18T11:43:59.466Z,28.57
2018-02-18T11:46:26.954Z,31.77
2018-02-18T11:48:55.124Z,28.97
2018-02-18T11:51:22.797Z,28.47
2018-02-18T11:53:50.334Z,28.90
2018-02-18T11:56:17.841Z,38.60
2018-02-18T11:58:45.546Z,31.07
2018-02-18T12:01:13.045Z,29.90
2018-02-18T12:03:40.867Z,25.60
2018-02-18T12:06:08.689Z,26.67
2018-02-18T12:08:36.316Z,26.57
2018-02-18T12:11:06.073Z,26.93
2018-02-18T12:13:33.597Z,25.17
2018-02-18T12:16:01.123Z,24.77
2018-02-18T12:18:29.723Z,23.93
2018-02-18T12:20:57.305Z,23.10
2018-02-18T12:23:24.795Z,25.03
2018-02-18T12:25:52.495Z,24.33
2018-02-18T12:28:19.999Z,25.80
2018-02-18T12:30:48.337Z,23.80
2018-02-18T12:36:03.914Z,29.20
2018-02-18T12:38:31.418Z,28.87
2018-02-18T12:40:58.933Z,28.70
2018-02-18T12:43:26.446Z,27.27
2018-02-18T12:45:53.962Z,25.40
2018-02-18T12:48:21.470Z,26.03
2018-02-18T12:50:49.770Z,26.27
2018-02-18T12:53:17.343Z,27.17
2018-02-18T12:55:44.859Z,28.00
2018-02-18T12:58:13.539Z,29.97
2018-02-18T13:37:18.427Z,18.20
2018-02-18T13:39:45.968Z,18.73
2018-02-18T13:42:13.502Z,19.23
2018-02-18T13:44:41.008Z,21.30
2018-02-18T13:47:08.551Z,16.57
2018-02-18T13:49:36.076Z,17.37
2018-02-18T13:52:03.603Z,17.37
2018-02-18T13:54:31.098Z,19.07
2018-02-18T13:56:58.689Z,17.63
2018-02-18T13:59:27.343Z,19.50
2018-02-18T14:01:54.864Z,17.73
2018-02-18T14:04:23.225Z,17.87
2018-02-18T14:06:50.811Z,20.27
2018-02-18T14:09:19.218Z,18.27
2018-02-18T14:11:46.734Z,18.17
2018-02-18T14:14:14.323Z,16.57
2018-02-18T14:16:41.947Z,18.17
2018-02-18T14:19:09.441Z,18.47
2018-02-18T14:21:36.944Z,20.13
2018-02-18T14:24:04.457Z,18.40
2018-02-18T14:26:33.969Z,18.03
2018-02-18T14:29:02.386Z,18.37
2018-02-18T14:31:33.464Z,18.60
2018-02-18T14:34:01.785Z,19.77
2018-02-18T14:36:39.217Z,19.27
2018-02-18T14:39:06.735Z,20.93
2018-02-18T14:41:46.510Z,21.73
2018-02-18T14:44:25.844Z,21.30
2018-02-18T14:47:07.956Z,22.77
2018-02-18T14:49:48.063Z,33.70
2018-02-18T14:52:30.209Z,20.23
2018-02-18T14:55:12.360Z,22.50
2018-02-18T14:57:42.468Z,23.47
2018-02-18T15:00:16.606Z,20.27
2018-02-18T15:02:45.301Z,21.77
2018-02-18T15:05:13.646Z,21.03
2018-02-18T15:07:43.403Z,21.80
2018-02-18T15:10:12.302Z,20.90
2018-02-18T15:12:41.181Z,18.03
2018-02-18T15:15:09.631Z,19.13
2018-02-18T15:17:38.110Z,20.35
2018-02-18T15:20:06.896Z,19.65
2018-02-18T15:22:38.461Z,29.05
2018-02-18T15:25:06.937Z,28.83
2018-02-18T15:27:35.925Z,25.63
2018-02-18T15:30:03.599Z,21.37
2018-02-18T15:32:35.148Z,18.87
2018-02-18T15:35:03.714Z,20.00
2018-02-18T15:37:32.180Z,22.40
2018-02-18T15:40:02.002Z,23.12
2018-02-18T15:42:29.527Z,20.63
2018-02-18T15:44:57.927Z,24.65
2018-02-18T15:47:25.497Z,24.57
2018-02-18T15:49:53.844Z,29.27
2018-02-18T15:52:21.838Z,28.87
2018-02-18T15:54:49.359Z,24.20
2018-02-18T15:57:16.858Z,23.30
2018-02-18T15:59:45.734Z,20.25
2018-02-18T16:02:13.251Z,19.90
2018-02-18T16:04:41.699Z,22.45
2018-02-18T16:07:09.236Z,23.08
2018-02-18T16:09:36.739Z,23.85
2018-02-18T16:12:04.270Z,20.45
2018-02-18T16:14:31.776Z,21.83
2018-02-18T16:16:59.309Z,21.60
2018-02-18T16:19:27.357Z,21.97
2018-02-18T16:21:55.041Z,22.48
2018-02-18T16:24:22.584Z,21.42
2018-02-18T16:26:50.905Z,22.95
2018-02-18T16:29:18.430Z,22.90
2018-02-18T16:31:46.733Z,23.62
2018-02-18T16:34:14.257Z,25.50
2018-02-18T16:36:41.752Z,25.60
2018-02-18T16:39:09.418Z,25.20
2018-02-18T16:41:36.924Z,24.50
2018-02-18T16:44:04.473Z,30.85
2018-02-18T16:46:31.983Z,27.60
2018-02-18T16:49:00.356Z,26.83
2018-02-18T16:51:27.996Z,28.02
2018-02-18T17:06:21.144Z,27.62
2018-02-18T17:08:48.647Z,26.80
2018-02-18T17:11:16.911Z,26.87
2018-02-18T17:13:44.442Z,28.20
2018-02-18T17:16:12.052Z,30.73
2018-02-18T17:18:39.588Z,30.52
2018-02-18T17:21:08.934Z,29.87
2018-02-18T17:23:37.605Z,28.27
2018-02-18T17:26:06.640Z,29.67
2018-02-18T17:28:34.646Z,32.28
2018-02-18T17:31:02.933Z,32.25
2018-02-18T17:33:31.203Z,32.10
2018-02-18T17:35:58.730Z,30.80
2018-02-18T17:38:26.263Z,34.05
2018-02-18T17:40:54.839Z,33.58
2018-02-18T17:43:22.323Z,35.60
2018-02-18T17:45:49.954Z,45.92
2018-02-18T17:48:17.467Z,44.30
2018-02-18T17:50:45.024Z,97.55
2018-02-18T17:53:12.584Z,50.38
2018-02-18T17:55:40.093Z,36.22
2018-02-18T17:58:07.620Z,44.45
2018-02-18T18:00:35.880Z,56.10
2018-02-18T18:03:03.411Z,43.75
2018-02-18T18:05:30.942Z,38.45
2018-02-18T18:07:58.449Z,41.63
2018-02-18T18:10:25.971Z,43.08
2018-02-18T18:12:53.508Z,42.10
2018-02-18T18:15:21.011Z,44.75
2018-02-18T18:17:48.507Z,50.85
2018-02-18T18:20:16.046Z,46.00
2018-02-18T18:22:44.350Z,44.50
2018-02-18T18:25:12.128Z,48.45
2018-02-18T18:27:39.658Z,47.92
2018-02-18T18:30:07.947Z,48.28
2018-02-18T18:32:35.444Z,47.08
2018-02-18T18:35:03.192Z,46.92
2018-02-18T18:37:30.824Z,47.75
2018-02-18T18:39:58.463Z,49.20
2018-02-18T18:42:26.780Z,51.53
2018-02-18T18:44:54.878Z,51.63
2018-02-18T18:47:22.403Z,54.85
2018-02-18T18:49:49.973Z,53.45
2018-02-18T18:52:18.113Z,51.53
2018-02-18T18:54:45.695Z,58.90
2018-02-18T18:57:13.262Z,58.42
2018-02-18T18:59:40.793Z,57.42
2018-02-18T19:02:09.196Z,53.55
2018-02-18T19:04:36.723Z,58.63
2018-02-18T19:07:04.245Z,63.15
2018-02-18T19:09:31.814Z,64.15
2018-02-18T19:11:59.321Z,61.58
2018-02-18T19:14:27.284Z,70.07
2018-02-18T19:16:55.666Z,59.03
2018-02-18T19:19:24.139Z,62.20
2018-02-18T19:21:52.438Z,62.13
2018-02-18T19:24:20.511Z,59.83
2018-02-18T19:26:48.132Z,61.40
2018-02-18T19:29:16.698Z,59.35
2018-02-18T19:31:45.158Z,60.72
2018-02-18T19:34:12.676Z,61.22
2018-02-18T19:36:40.230Z,64.15
2018-02-18T19:39:08.566Z,60.70
2018-02-18T19:41:36.863Z,61.90
2018-02-18T19:44:05.909Z,69.72
2018-02-18T19:46:34.236Z,58.42
2018-02-18T19:49:01.838Z,59.50
2018-02-18T19:51:29.385Z,59.50
2018-02-18T19:53:57.471Z,64.15
2018-02-18T19:56:24.974Z,58.10
2018-02-18T19:58:52.685Z,68.12
2018-02-18T20:01:20.363Z,75.72
2018-02-18T20:03:47.913Z,70.20
2018-02-18T20:06:15.673Z,70.15
2018-02-18T20:08:43.556Z,66.28
2018-02-18T20:11:11.468Z,65.95
2018-02-18T20:13:39.591Z,67.00
2018-02-18T20:16:07.651Z,59.95
2018-02-18T20:18:35.193Z,65.82
2018-02-18T20:21:02.754Z,58.63
2018-02-18T20:23:30.291Z,60.38
2018-02-18T20:25:58.586Z,71.70
2018-02-18T20:28:26.224Z,63.10
2018-02-18T20:30:54.864Z,56.08
2018-02-18T20:33:22.447Z,61.75
2018-02-18T20:35:49.976Z,61.42
2018-02-18T20:38:17.568Z,60.35
2018-02-18T20:40:45.148Z,55.75
2018-02-18T20:43:13.573Z,64.85
2018-02-18T20:45:41.237Z,63.97
2018-02-18T20:48:11.640Z,60.85
2018-02-18T20:50:39.143Z,58.03
2018-02-18T20:53:06.892Z,66.12
2018-02-18T20:55:37.114Z,60.72
2018-02-18T20:58:06.706Z,63.80
2018-02-18T21:00:34.217Z,62.50
2018-02-18T21:03:02.512Z,69.65
2018-02-18T21:05:30.049Z,72.43
2018-02-18T21:07:57.568Z,69.72
2018-02-18T21:10:25.198Z,68.30
2018-02-18T21:12:52.866Z,66.35
2018-02-18T21:15:20.427Z,70.28
2018-02-18T21:17:47.943Z,74.47
2018-02-18T21:20:15.464Z,65.47
2018-02-18T21:22:43.005Z,70.35
2018-02-18T21:25:10.506Z,76.25
2018-02-18T21:27:38.233Z,73.60
2018-02-18T21:30:07.825Z,70.22
2018-02-18T21:32:35.366Z,64.18
2018-02-18T21:35:03.634Z,66.90
2018-02-18T21:37:32.248Z,66.10
2018-02-18T21:40:00.338Z,61.17
2018-02-18T21:42:27.898Z,68.45
2018-02-18T21:44:55.444Z,61.00
2018-02-18T21:47:23.933Z,59.05
2018-02-18T21:49:53.668Z,63.17
2018-02-18T21:52:21.306Z,66.00
2018-02-18T21:54:48.802Z,63.75
2018-02-18T21:57:19.106Z,62.55
2018-02-18T21:59:47.677Z,67.75
2018-02-18T22:02:15.205Z,70.00
